Latest Coastal Weather Observations for Bunbury

IDW60701

Issued at 12:42 pm WST Saturday 13 February 2016 (issued every 10 minutes, with the page automatically refreshed every 10 minutes)

About coastal observations | Map of coastal stations | Coastal observations for WA | Marine services | Other Formats
Station Details ID: 009965 Name: BUNBURY Lat: -33.36 Lon: 115.64 Height: 5.2 m
Data from the previous 72 hours. | See also: Recent months at Bunbury
Date/Time
WST
Temp

°C
Wind Pressure Rain
since 9am
mm
Weather Cloud Vis
km
Sea
Height
m
Swell
Dir
 
Speed
knots
Gust
knots
hPa Trend Height
m
Period
s
Dir
13/12:30pm 24.9 SSE 9 19 1022.1 - 0.0 - - - - - - -
13/12:00pm 24.7 SE 10 15 1022.7 - 0.0 - - - - - - -
13/11:30am 23.3 SE 11 20 1023.0 - 0.0 - - - - - - -
13/11:00am 22.6 SE 9 13 1023.2 - 0.0 - - - - - - -
13/10:30am 22.0 ESE 12 19 1023.7 - 0.0 - - - - - - -
13/10:00am 21.9 SE 10 21 1023.9 - 0.0 - - - - - - -
13/09:30am 20.4 ESE 12 19 1024.0 - 0.0 - - - - - - -
13/09:00am 19.7 SE 10 22 1024.3 - 0.0 - - - - - - -
13/08:30am 18.7 SE 12 19 1024.3 - 0.0 - - - - - - -
13/08:00am 18.4 SE 8 13 1024.3 - 0.0 - - - - - - -
13/07:30am 16.8 SSE 7 10 1024.2 - 0.0 - - - - - - -
13/07:00am 15.5 SSE 6 9 1024.1 - 0.0 - - - - - - -
13/06:30am 14.4 SSE 5 8 1023.6 - 0.0 - - - - - - -
13/06:00am 13.7 SSE 5 7 1023.4 - 0.0 - - - - - - -
13/05:30am 13.6 SSE 4 6 1022.9 - 0.0 - - - - - - -
13/05:00am 13.8 SSE 4 5 1022.4 - 0.0 - - - - - - -
13/04:30am 14.4 S 5 7 1022.0 - 0.0 - - - - - - -
13/04:00am 14.7 S 4 5 1021.8 - 0.0 - - - - - - -
13/03:30am 15.0 S 4 6 1021.7 - 0.0 - - - - - - -
13/03:00am 15.6 S 5 8 1021.4 - 0.0 - - - - - - -
13/02:30am 15.6 S 5 7 1021.2 - 0.0 - - - - - - -
13/02:00am 16.0 S 5 6 1021.0 - 0.0 - - - - - - -
13/01:30am 16.5 S 6 9 1020.8 - 0.0 - - - - - - -
13/01:00am 16.8 S 6 9 1020.7 - 0.0 - - - - - - -
13/12:30am 17.3 S 6 10 1020.6 - 0.0 - - - - - - -
13/12:00am 17.7 SSE 6 11 1020.5 - 0.0 - - - - - - -
 
Date/Time
WST
Temp

°C
Wind Pressure Rain
since 9am
mm
Weather Cloud Vis
km
Sea
Height
m
Swell
Dir
 
Speed
knots
Gust
knots
hPa Trend Height
m
Period
s
Dir
12/11:30pm 18.0 SSE 8 11 1020.4 - 0.0 - - - - - - -
12/11:00pm 18.1 S 7 13 1020.3 - 0.0 - - - - - - -
12/10:30pm 18.5 S 7 11 1020.4 - 0.0 - - - - - - -
12/10:00pm 19.0 S 9 13 1020.4 - 0.0 - - - - - - -
12/09:30pm 19.7 S 11 16 1020.3 - 0.0 - - - - - - -
12/09:00pm 20.2 S 11 16 1019.9 - 0.0 - - - - - - -
12/08:30pm 20.8 S 11 15 1019.6 - 0.0 - - - - - - -
12/08:00pm 21.3 S 12 17 1019.2 - 0.0 - - - - - - -
12/07:30pm 22.1 S 13 19 1018.8 - 0.0 - - - - - - -
12/07:00pm 23.5 S 12 17 1018.3 - 0.0 - - - - - - -
12/06:30pm 25.3 SSW 13 19 1017.7 - 0.0 - - - - - - -
12/06:00pm 26.8 S 11 17 1017.2 - 0.0 - - - - - - -
12/05:30pm 27.6 S 13 19 1016.9 - 0.0 - - - - - - -
12/05:00pm 28.6 S 12 18 1016.7 - 0.0 - - - - - - -
12/04:30pm 28.8 SSW 12 19 1016.5 - 0.0 - - - - - - -
12/04:00pm 29.3 S 11 17 1016.4 - 0.0 - - - - - - -
12/03:30pm 29.8 S 10 15 1016.4 - 0.0 - - - - - - -
12/03:00pm 27.6 WSW 10 17 1016.6 - 0.0 - - - - - - -
12/02:30pm 29.5 S 10 17 1016.7 - 0.0 - - - - - - -
12/02:00pm 28.2 SSW 9 15 1017.0 - 0.0 - - - - - - -
12/01:30pm 28.6 S 9 15 1017.2 - 0.0 - - - - - - -
12/01:00pm 28.1 SSW 10 17 1017.4 - 0.0 - - - - - - -
12/12:30pm 27.6 S 10 19 1017.7 - 0.0 - - - - - - -
12/12:00pm 27.6 S 8 14 1018.0 - 0.0 - - - - - - -
12/11:30am 26.3 SSE 9 13 1018.6 - 0.0 - - - - - - -
12/11:00am 25.3 SSW 8 13 1018.9 - 0.0 - - - - - - -
12/10:30am 24.7 SSE 8 12 1018.8 - 0.0 - - - - - - -
12/10:00am 23.4 SSW 7 10 1019.0 - 0.0 - - - - - - -
12/09:30am 23.3 SSE 7 11 1019.0 - 0.0 - - - - - - -
12/09:00am 22.1 S 8 12 1019.0 - 0.0 - - - - - - -
12/08:30am 21.1 S 7 10 1019.0 - 0.0 - - - - - - -
12/08:00am 20.5 SSE 7 11 1018.7 - 0.0 - - - - - - -
12/07:30am 19.3 SSW 4 7 1018.9 - 0.0 - - - - - - -
12/07:00am 17.9 SSW 4 5 1018.4 - 0.0 - - - - - - -
12/06:30am 17.6 SSW 3 4 1018.2 - 0.0 - - - - - - -
12/06:00am 16.8 SSW 2 3 1017.9 - 0.0 - - - - - - -
12/05:30am 15.2 S 2 2 1017.3 - 0.0 - - - - - - -
12/05:00am 16.1 SSW 2 2 1016.9 - 0.0 - - - - - - -
12/04:30am 16.3 S 3 4 1016.3 - 0.0 - - - - - - -
12/04:00am 16.5 S 3 4 1015.9 - 0.0 - - - - - - -
12/03:30am 16.8 S 3 4 1015.7 - 0.0 - - - - - - -
12/03:00am 17.0 SSE 3 4 1015.4 - 0.0 - - - - - - -
12/02:30am 17.3 SE 4 5 1015.2 - 0.0 - - - - - - -
12/02:00am 17.7 S 5 8 1015.0 - 0.0 - - - - - - -
12/01:30am 18.0 S 5 9 1014.9 - 0.0 - - - - - - -
12/01:00am 18.2 SSW 7 10 1015.0 - 0.0 - - - - - - -
12/12:30am 18.4 SSW 6 8 1015.2 - 0.0 - - - - - - -
12/12:00am 18.7 SSW 5 7 1015.4 - 0.0 - - - - - - -
 
Date/Time
WST
Temp

°C
Wind Pressure Rain
since 9am
mm
Weather Cloud Vis
km
Sea
Height
m
Swell
Dir
 
Speed
knots
Gust
knots
hPa Trend Height
m
Period
s
Dir
11/11:30pm 18.9 SSW 4 6 1015.5 - 0.0 - - - - - - -
11/11:00pm 19.4 S 5 7 1015.4 - 0.0 - - - - - - -
11/10:30pm 19.9 S 5 9 1015.4 - 0.0 - - - - - - -
11/10:00pm 20.7 S 7 9 1015.3 - 0.0 - - - - - - -
11/09:30pm 21.5 S 8 11 1015.1 - 0.0 - - - - - - -
11/09:00pm 22.4 S 8 13 1014.5 - 0.0 - - - - - - -
11/08:30pm 24.1 SSW 10 13 1014.0 - 0.0 - - - - - - -
11/08:00pm 25.7 SSW 8 12 1013.4 - 0.0 - - - - - - -
11/07:30pm 26.6 SW 6 12 1012.8 - 0.0 - - - - - - -
11/07:00pm 26.4 SW 3 6 1012.4 - 0.0 - - - - - - -
11/06:30pm 26.8 W 4 7 1012.0 - 0.0 - - - - - - -
11/06:00pm 27.2 WSW 5 7 1011.7 - 0.0 - - - - - - -
11/05:30pm 27.4 W 5 10 1011.4 - 0.0 - - - - - - -
11/05:00pm 27.2 W 7 11 1011.3 - 0.0 - - - - - - -
11/04:30pm 27.4 WNW 7 9 1011.2 - 0.0 - - - - - - -
11/04:00pm 27.3 W 7 9 1011.2 - 0.0 - - - - - - -
11/03:30pm 28.3 WNW 7 10 1011.3 - 0.0 - - - - - - -
11/03:00pm 27.9 W 8 12 1011.5 - 0.0 - - - - - - -
11/02:30pm 29.4 WNW 7 12 1011.8 - 0.0 - - - - - - -
11/02:00pm 29.2 WNW 7 9 1011.9 - 0.0 - - - - - - -
11/01:30pm 29.8 WNW 6 8 1012.3 - 0.0 - - - - - - -
11/01:00pm 30.2 NW 6 8 1012.4 - 0.0 - - - - - - -
11/12:30pm 30.4 WNW 5 8 1012.5 - 0.0 - - - - - - -
11/12:00pm 29.8 WNW 6 9 1012.7 - 0.0 - - - - - - -
11/11:30am 30.7 NW 5 7 1012.8 - 0.0 - - - - - - -
11/11:00am 30.3 NNW 4 7 1013.0 - 0.0 - - - - - - -
11/10:30am 30.4 SE 1 4 1013.2 - 0.0 - - - - - - -
11/10:00am 29.0 WSW 3 5 1013.3 - 0.0 - - - - - - -
11/09:30am 28.1 WSW 2 4 1013.4 - 0.0 - - - - - - -
11/09:00am 27.1 SE 1 2 1013.3 - 0.0 - - - - - - -
11/08:30am 26.1 E 3 7 1013.1 - 0.0 - - - - - - -
11/08:00am 24.5 SE 5 7 1013.0 - 0.0 - - - - - - -
11/07:30am 23.0 SE 6 8 1012.9 - 0.0 - - - - - - -
11/07:00am 21.5 SE 5 6 1012.8 - 0.0 - - - - - - -
11/06:30am 20.1 SE 4 6 1012.8 - 0.0 - - - - - - -
11/06:00am 19.4 SE 4 6 1012.6 - 0.0 - - - - - - -
11/05:30am 19.2 SE 4 5 1012.3 - 0.0 - - - - - - -
11/05:00am 19.9 SSE 3 7 1012.0 - 0.0 - - - - - - -
11/04:30am 20.1 S 4 4 1012.0 - 0.0 - - - - - - -
11/04:00am 20.4 SW 3 5 1011.8 - 0.0 - - - - - - -
11/03:30am 20.7 WSW 3 3 1011.3 - 0.0 - - - - - - -
11/03:00am 21.9 E 3 5 1011.0 - 0.0 - - - - - - -
11/02:30am 22.5 E 3 4 1011.2 - 0.0 - - - - - - -
11/02:00am 23.0 ESE 4 6 1011.6 - 0.0 - - - - - - -
11/01:30am 24.1 ESE 5 7 1011.8 - 0.0 - - - - - - -
11/01:00am 24.7 ESE 7 10 1012.0 - 0.0 - - - - - - -
11/12:30am 25.4 ESE 7 10 1012.3 - 0.0 - - - - - - -
11/12:00am 25.7 SE 7 10 1012.4 - 0.0 - - - - - - -
 
Date/Time
WST
Temp

°C
Wind Pressure Rain
since 9am
mm
Weather Cloud Vis
km
Sea
Height
m
Swell
Dir
 
Speed
knots
Gust
knots
hPa Trend Height
m
Period
s
Dir
10/11:30pm 26.0 SSE 6 9 1012.4 - 0.0 - - - - - - -
10/11:00pm 26.4 SE 7 10 1012.4 - 0.0 - - - - - - -
10/10:30pm 23.8 S 4 6 1012.5 - 0.0 - - - - - - -
10/10:00pm 23.3 CALM 0 0 1012.9 - 0.0 - - - - - - -
10/09:30pm 24.5 SE 2 3 1013.0 - 0.0 - - - - - - -
10/09:00pm 22.9 ESE 1 2 1013.0 - 0.0 - - - - - - -
10/08:30pm 23.4 CALM 0 0 1012.6 - 0.0 - - - - - - -
10/08:00pm 25.2 S 1 3 1012.3 - 0.0 - - - - - - -
10/07:30pm 26.5 SW 4 5 1012.1 - 0.0 - - - - - - -
10/07:00pm 28.1 WSW 3 5 1012.0 - 0.0 - - - - - - -
10/06:30pm 29.3 WSW 3 6 1011.9 - 0.0 - - - - - - -
10/06:00pm 30.6 WSW 5 8 1011.7 - 0.0 - - - - - - -
10/05:30pm 30.5 WSW 6 8 1011.5 - 0.0 - - - - - - -
10/05:00pm 30.4 W 7 10 1011.6 - 0.0 - - - - - - -
10/04:30pm 30.8 W 7 10 1011.6 - 0.0 - - - - - - -
10/04:00pm 32.5 WSW 7 9 1011.6 - 0.0 - - - - - - -
10/03:30pm 33.6 WSW 7 9 1011.7 - 0.0 - - - - - - -
10/03:00pm 34.6 WSW 7 8 1011.9 - 0.0 - - - - - - -
10/02:30pm 34.7 WSW 6 8 1012.2 - 0.0 - - - - - - -
10/02:00pm 35.4 WSW 6 8 1012.5 - 0.0 - - - - - - -
10/01:30pm 36.3 WSW 3 7 1012.7 - 0.0 - - - - - - -
10/01:00pm 36.5 E 3 7 1013.0 - 0.0 - - - - - - -

Other Formats:

Comma delimited format used in spreadsheet applications
http://www.bom.gov.au/fwo/IDW60701/IDW60701.94604.axf

JavaScript Object Notation format (JSON) in row-major order
http://www.bom.gov.au/fwo/IDW60701/IDW60701.94604.json